Quantum Of The Seas — C6BH8 — position and weather

sailwx.info

Track history (hours):
 
Tides and Currents Weather Stations Pressure Air Temp Water Temp Dewpoint Dewpoint Depression Visibility Wind Speed Wind Dir Waves Ship Positions

Quantum Of The Seas

Last reported at 2018-Sep-19 03:30 UTC. Time now 2018-Sep-19 03:58 UTC.
Position N 35°27' E 139°41'.

Length 348 m; draft 9 m.

Type: Passenger vessel. MMSI: 311000267.

Date/timePositionNaut miles runAvg speedWind from/ knotsBaromVisibWave heightAir tempDewpointWater temp
2018-Sep-19 03:30N 35°27' E 139°41'3 6.7
2018-Sep-19 03:03N 35°25' E 139°43'0 8.4
2018-Sep-19 03:00N 35°25' E 139°43'611.9
2018-Sep-19 02:30N 35°19' E 139°44'612.8
2018-Sep-19 02:03N 35°13' E 139°47'113.4
2018-Sep-19 02:00N 35°13' E 139°47'714.3
2018-Sep-19 01:30N 35°06' E 139°45'5923.6
2018-Sep-18 23:00N 34°24' E 138°54'8717.5 050 / 341013.9 22.018.9
2018-Sep-18 18:00N 33°48' E 137°18'9519.0 320 / 111012.910.8 26.0
2018-Sep-18 13:00N 33°06' E 135°36'5025.1 250 / 51013.9 5.4 27.0 27.0
2018-Sep-18 11:00N 33°42' E 134°54'625.5 250 / 161012.9 26.018.228.0
2018-Sep-18 10:45N 33°46' E 134°59'520.3
2018-Sep-18 10:30N 33°51' E 134°57'1519.8
2018-Sep-18 09:44N 34°06' E 134°57'519.9
2018-Sep-18 09:30N 34°11' E 134°58'614.2
2018-Sep-18 09:03N 34°17' E 134°58'118.6
2018-Sep-18 09:00N 34°18' E 134°58'919.0
2018-Sep-18 08:30N 34°26' E 135°05'920.2
2018-Sep-18 08:03N 34°32' E 135°12'119.6
2018-Sep-18 08:00N 34°33' E 135°13'714.6
2018-Sep-18 07:30N 34°40' E 135°15'2 4.6
2018-Sep-18 07:02N 34°41' E 135°12'0 0.0
2018-Sep-18 06:56N 34°41' E 135°12'0 0.0
2018-Sep-18 06:26N 34°41' E 135°12'0 0.0
2018-Sep-18 05:56N 34°41' E 135°12'0 0.0
2018-Sep-18 05:29N 34°41' E 135°12'0 0.0
2018-Sep-18 05:02N 34°41' E 135°12'0 0.0
2018-Sep-18 04:59N 34°41' E 135°12'0 0.0
2018-Sep-18 04:29N 34°41' E 135°12'0 0.0
2018-Sep-18 04:02N 34°41' E 135°12'5103.1
2018-Sep-18 04:00N 34°36' E 135°12'51574.2 210 / 51013.910.8 27.4
2018-Sep-18 03:59N 34°41' E 135°12'0 0.0
2018-Sep-18 03:29N 34°41' E 135°12'0 0.0
2018-Sep-18 02:59N 34°41' E 135°12'0 0.0
2018-Sep-18 02:29N 34°41' E 135°12'0 0.0
2018-Sep-18 01:59N 34°41' E 135°12'0 0.0
2018-Sep-18 01:29N 34°41' E 135°12'0 0.0
2018-Sep-18 01:02N 34°41' E 135°12'0 0.0
2018-Sep-18 00:59N 34°41' E 135°12'0 0.0
2018-Sep-18 00:29N 34°41' E 135°12'0 0.0
2018-Sep-18 00:02N 34°41' E 135°12'0 0.0
2018-Sep-17 23:53N 34°41' E 135°12'0 0.0
2018-Sep-17 23:29N 34°41' E 135°12'0 0.0
2018-Sep-17 22:59N 34°41' E 135°12'0 0.0
2018-Sep-17 22:29N 34°41' E 135°12'0 0.0
2018-Sep-17 21:53N 34°41' E 135°12'0 0.0
2018-Sep-17 21:29N 34°41' E 135°12'0 0.0
2018-Sep-17 21:03N 34°41' E 135°12'0 0.2
2018-Sep-17 21:00N 34°41' E 135°12'3 6.3
2018-Sep-17 20:30N 34°39' E 135°16'510.9
2018-Sep-17 20:03N 34°37' E 135°21'112.5
2018-Sep-17 20:00N 34°37' E 135°21'4 7.9
2018-Sep-17 19:30N 34°39' E 135°25'1 1.1
2018-Sep-17 19:01N 34°39' E 135°26'0 0.0
2018-Sep-17 18:55N 34°39' E 135°26'0 0.0
2018-Sep-17 18:19N 34°39' E 135°26'0 0.0
2018-Sep-17 18:02N 34°39' E 135°26'0 0.0
2018-Sep-17 17:50N 34°39' E 135°26'0 0.0
2018-Sep-17 17:20N 34°39' E 135°26'0 0.0
2018-Sep-17 17:02N 34°39' E 135°26'0 0.0
2018-Sep-17 16:56N 34°39' E 135°26'0 0.0
2018-Sep-17 16:26N 34°39' E 135°26'0 0.0
2018-Sep-17 16:02N 34°39' E 135°26'0 0.0
2018-Sep-17 15:56N 34°39' E 135°26'0 0.0
2018-Sep-17 15:26N 34°39' E 135°26'0 0.0
2018-Sep-17 14:50N 34°39' E 135°26'0 0.0
2018-Sep-17 14:26N 34°39' E 135°26'0 0.0
2018-Sep-17 13:56N 34°39' E 135°26'0 0.0
2018-Sep-17 13:20N 34°39' E 135°26'0 0.0
2018-Sep-17 13:02N 34°39' E 135°26'0 0.0
2018-Sep-17 12:56N 34°39' E 135°26'0 0.0
2018-Sep-17 12:20N 34°39' E 135°26'0 0.0
2018-Sep-17 11:59N 34°39' E 135°26'0 0.0
2018-Sep-17 11:23N 34°39' E 135°26'0 0.0
2018-Sep-17 10:59N 34°39' E 135°26'0 0.0
2018-Sep-17 10:29N 34°39' E 135°26'0 0.0
2018-Sep-17 09:59N 34°39' E 135°26'0 0.0
2018-Sep-17 09:17N 34°39' E 135°26'0 0.0
2018-Sep-17 08:41N 34°39' E 135°26'0 0.0
2018-Sep-17 08:29N 34°39' E 135°26'0 0.0
2018-Sep-17 07:59N 34°39' E 135°26'0 0.0
2018-Sep-17 07:23N 34°39' E 135°26'0 0.0
2018-Sep-17 06:53N 34°39' E 135°26'0 0.0
2018-Sep-17 06:29N 34°39' E 135°26'0 0.0
2018-Sep-17 05:59N 34°39' E 135°26'0 0.0
2018-Sep-17 05:23N 34°39' E 135°26'0 0.0
2018-Sep-17 04:59N 34°39' E 135°26'0 0.0
2018-Sep-17 04:29N 34°39' E 135°26'1 2.6
2018-Sep-17 04:02N 34°39' E 135°25'0 9.7
2018-Sep-17 04:00N 34°39' E 135°24'613.0
2018-Sep-17 03:30N 34°34' E 135°18'716.6
2018-Sep-17 03:03N 34°30' E 135°11'117.5
2018-Sep-17 03:00N 34°29' E 135°11'917.4
2018-Sep-17 02:30N 34°22' E 135°04'716.7
2018-Sep-17 02:03N 34°16' E 134°59'117.2
2018-Sep-17 02:00N 34°15' E 134°59'713.8
2018-Sep-17 01:29N 34°08' E 134°59'715.8
2018-Sep-17 01:03N 34°01' E 134°57'117.6
2018-Sep-17 01:00N 34°01' E 134°56'1217.2
2018-Sep-17 00:20N 33°49' E 134°53'45317.9
2018-Sep-15 23:00N 31°00' E 126°36'7719.3 090 / 101014.9 27.024.1
2018-Sep-15 19:00N 31°00' E 125°06'14719.3 090 / 141013.910.8 26.0
2018-Sep-15 11:22N 31°09' E 122°14'715.0
2018-Sep-15 10:54N 31°13' E 122°07'614.7
2018-Sep-15 10:30N 31°15' E 122°01'714.3
2018-Sep-15 10:01N 31°16' E 121°53'012.6
2018-Sep-15 10:00N 31°16' E 121°53'7 0.5
2018-Sep-14 20:57N 31°18' E 121°45'4 8.4
2018-Sep-14 20:28N 31°17' E 121°50'4 9.0
2018-Sep-14 20:03N 31°16' E 121°54'010.7
2018-Sep-14 20:01N 31°16' E 121°54'510.1
2018-Sep-14 19:29N 31°15' E 122°00'1011.2
2018-Sep-14 18:36N 31°11' E 122°11'313.2
2018-Sep-14 18:24N 31°09' E 122°13'513.1
2018-Sep-14 18:01N 31°06' E 122°19'012.9
2018-Sep-14 18:00N 31°06' E 122°19'9215.3
2018-Sep-14 12:00N 31°06' E 124°06'15914.5 350 / 51013.910.8 28.0 28.0
2018-Sep-14 01:00N 31°00' E 127°12'136 5.2 190 / 201012.910.8 28.724.429.0
2018-Sep-12 23:00N 31°24' E 129°48'134 9.6 140 / 141013.910.8 26.725.727.0
2018-Sep-12 09:00N 33°36' E 130°18'97 4.6 050 / 51013.910.8 26.6
2018-Sep-11 12:00N 33°18' E 128°24'6611.0 060 / 321015.910.8 24.2
2018-Sep-11 06:00N 32°42' E 127°18'8414.0 080 / 281014.9
2018-Sep-11 00:00N 32°06' E 125°48'3316.4 050 / 331015.910.8 25.023.524.0
2018-Sep-10 22:00N 31°54' E 125°12'16014.4 050 / 301016.110.8
2018-Sep-10 10:55N 31°10' E 122°12'715.0
2018-Sep-10 10:27N 31°14' E 122°05'715.1
2018-Sep-10 10:00N 31°15' E 121°57'25 2.8
2018-Sep-10 01:00N 31°24' E 121°30'0 0.0 010 / 131018.910.8 26.8
2018-Sep-10 00:00N 31°24' E 121°30'22 2.2 010 / 171017.910.8 25.0
2018-Sep-09 13:59N 31°16' E 121°54'711.5
2018-Sep-09 13:25N 31°15' E 122°01'  
Track history (hours):
 
Tides and Currents Weather Stations Pressure Air Temp Water Temp Dewpoint Dewpoint Depression Visibility Wind Speed Wind Dir Waves Ship Positions

Quantum Of The Seas

Last reported at 2018-Sep-19 03:30 UTC. Time now 2018-Sep-19 03:58 UTC.
Position N 35°27' E 139°41'.

Length 348 m; draft 9 m.

Type: Passenger vessel. MMSI: 311000267.

Date/timePositionNaut miles runAvg speedWind from/ knotsBaromVisibWave heightAir tempDewpointWater temp
2018-Sep-19 03:30N 35°27' E 139°41'3 6.7
2018-Sep-19 03:03N 35°25' E 139°43'0 8.4
2018-Sep-19 03:00N 35°25' E 139°43'611.9
2018-Sep-19 02:30N 35°19' E 139°44'612.8
2018-Sep-19 02:03N 35°13' E 139°47'113.4
2018-Sep-19 02:00N 35°13' E 139°47'714.3
2018-Sep-19 01:30N 35°06' E 139°45'5923.6
2018-Sep-18 23:00N 34°24' E 138°54'8717.5 050 / 341013.9 22.018.9
2018-Sep-18 18:00N 33°48' E 137°18'9519.0 320 / 111012.910.8 26.0
2018-Sep-18 13:00N 33°06' E 135°36'5025.1 250 / 51013.9 5.4 27.0 27.0
2018-Sep-18 11:00N 33°42' E 134°54'625.5 250 / 161012.9 26.018.228.0
2018-Sep-18 10:45N 33°46' E 134°59'520.3
2018-Sep-18 10:30N 33°51' E 134°57'1519.8
2018-Sep-18 09:44N 34°06' E 134°57'519.9
2018-Sep-18 09:30N 34°11' E 134°58'614.2
2018-Sep-18 09:03N 34°17' E 134°58'118.6
2018-Sep-18 09:00N 34°18' E 134°58'919.0
2018-Sep-18 08:30N 34°26' E 135°05'920.2
2018-Sep-18 08:03N 34°32' E 135°12'119.6
2018-Sep-18 08:00N 34°33' E 135°13'714.6
2018-Sep-18 07:30N 34°40' E 135°15'2 4.6
2018-Sep-18 07:02N 34°41' E 135°12'0 0.0
2018-Sep-18 06:56N 34°41' E 135°12'0 0.0
2018-Sep-18 06:26N 34°41' E 135°12'0 0.0
2018-Sep-18 05:56N 34°41' E 135°12'0 0.0
2018-Sep-18 05:29N 34°41' E 135°12'0 0.0
2018-Sep-18 05:02N 34°41' E 135°12'0 0.0
2018-Sep-18 04:59N 34°41' E 135°12'0 0.0
2018-Sep-18 04:29N 34°41' E 135°12'0 0.0
2018-Sep-18 04:02N 34°41' E 135°12'5103.1
2018-Sep-18 04:00N 34°36' E 135°12'51574.2 210 / 51013.910.8 27.4
2018-Sep-18 03:59N 34°41' E 135°12'0 0.0
2018-Sep-18 03:29N 34°41' E 135°12'0 0.0
2018-Sep-18 02:59N 34°41' E 135°12'0 0.0
2018-Sep-18 02:29N 34°41' E 135°12'0 0.0
2018-Sep-18 01:59N 34°41' E 135°12'0 0.0
2018-Sep-18 01:29N 34°41' E 135°12'0 0.0
2018-Sep-18 01:02N 34°41' E 135°12'0 0.0
2018-Sep-18 00:59N 34°41' E 135°12'0 0.0
2018-Sep-18 00:29N 34°41' E 135°12'0 0.0
2018-Sep-18 00:02N 34°41' E 135°12'0 0.0
2018-Sep-17 23:53N 34°41' E 135°12'0 0.0
2018-Sep-17 23:29N 34°41' E 135°12'0 0.0
2018-Sep-17 22:59N 34°41' E 135°12'0 0.0
2018-Sep-17 22:29N 34°41' E 135°12'0 0.0
2018-Sep-17 21:53N 34°41' E 135°12'0 0.0
2018-Sep-17 21:29N 34°41' E 135°12'0 0.0
2018-Sep-17 21:03N 34°41' E 135°12'0 0.2
2018-Sep-17 21:00N 34°41' E 135°12'3 6.3
2018-Sep-17 20:30N 34°39' E 135°16'510.9
2018-Sep-17 20:03N 34°37' E 135°21'112.5
2018-Sep-17 20:00N 34°37' E 135°21'4 7.9
2018-Sep-17 19:30N 34°39' E 135°25'1 1.1
2018-Sep-17 19:01N 34°39' E 135°26'0 0.0
2018-Sep-17 18:55N 34°39' E 135°26'0 0.0
2018-Sep-17 18:19N 34°39' E 135°26'0 0.0
2018-Sep-17 18:02N 34°39' E 135°26'0 0.0
2018-Sep-17 17:50N 34°39' E 135°26'0 0.0
2018-Sep-17 17:20N 34°39' E 135°26'0 0.0
2018-Sep-17 17:02N 34°39' E 135°26'0 0.0
2018-Sep-17 16:56N 34°39' E 135°26'0 0.0
2018-Sep-17 16:26N 34°39' E 135°26'0 0.0
2018-Sep-17 16:02N 34°39' E 135°26'0 0.0
2018-Sep-17 15:56N 34°39' E 135°26'0 0.0
2018-Sep-17 15:26N 34°39' E 135°26'0 0.0
2018-Sep-17 14:50N 34°39' E 135°26'0 0.0
2018-Sep-17 14:26N 34°39' E 135°26'0 0.0
2018-Sep-17 13:56N 34°39' E 135°26'0 0.0
2018-Sep-17 13:20N 34°39' E 135°26'0 0.0
2018-Sep-17 13:02N 34°39' E 135°26'0 0.0
2018-Sep-17 12:56N 34°39' E 135°26'0 0.0
2018-Sep-17 12:20N 34°39' E 135°26'0 0.0
2018-Sep-17 11:59N 34°39' E 135°26'0 0.0
2018-Sep-17 11:23N 34°39' E 135°26'0 0.0
2018-Sep-17 10:59N 34°39' E 135°26'0 0.0
2018-Sep-17 10:29N 34°39' E 135°26'0 0.0
2018-Sep-17 09:59N 34°39' E 135°26'0 0.0
2018-Sep-17 09:17N 34°39' E 135°26'0 0.0
2018-Sep-17 08:41N 34°39' E 135°26'0 0.0
2018-Sep-17 08:29N 34°39' E 135°26'0 0.0
2018-Sep-17 07:59N 34°39' E 135°26'0 0.0
2018-Sep-17 07:23N 34°39' E 135°26'0 0.0
2018-Sep-17 06:53N 34°39' E 135°26'0 0.0
2018-Sep-17 06:29N 34°39' E 135°26'0 0.0
2018-Sep-17 05:59N 34°39' E 135°26'0 0.0
2018-Sep-17 05:23N 34°39' E 135°26'0 0.0
2018-Sep-17 04:59N 34°39' E 135°26'0 0.0
2018-Sep-17 04:29N 34°39' E 135°26'1 2.6
2018-Sep-17 04:02N 34°39' E 135°25'0 9.7
2018-Sep-17 04:00N 34°39' E 135°24'613.0
2018-Sep-17 03:30N 34°34' E 135°18'716.6
2018-Sep-17 03:03N 34°30' E 135°11'117.5
2018-Sep-17 03:00N 34°29' E 135°11'917.4
2018-Sep-17 02:30N 34°22' E 135°04'716.7
2018-Sep-17 02:03N 34°16' E 134°59'117.2
2018-Sep-17 02:00N 34°15' E 134°59'713.8
2018-Sep-17 01:29N 34°08' E 134°59'715.8
2018-Sep-17 01:03N 34°01' E 134°57'117.6
2018-Sep-17 01:00N 34°01' E 134°56'1217.2
2018-Sep-17 00:20N 33°49' E 134°53'45317.9
2018-Sep-15 23:00N 31°00' E 126°36'7719.3 090 / 101014.9 27.024.1
2018-Sep-15 19:00N 31°00' E 125°06'14719.3 090 / 141013.910.8 26.0
2018-Sep-15 11:22N 31°09' E 122°14'715.0
2018-Sep-15 10:54N 31°13' E 122°07'614.7
2018-Sep-15 10:30N 31°15' E 122°01'714.3
2018-Sep-15 10:01N 31°16' E 121°53'012.6
2018-Sep-15 10:00N 31°16' E 121°53'7 0.5
2018-Sep-14 20:57N 31°18' E 121°45'4 8.4
2018-Sep-14 20:28N 31°17' E 121°50'4 9.0
2018-Sep-14 20:03N 31°16' E 121°54'010.7
2018-Sep-14 20:01N 31°16' E 121°54'510.1
2018-Sep-14 19:29N 31°15' E 122°00'1011.2
2018-Sep-14 18:36N 31°11' E 122°11'313.2
2018-Sep-14 18:24N 31°09' E 122°13'513.1
2018-Sep-14 18:01N 31°06' E 122°19'012.9
2018-Sep-14 18:00N 31°06' E 122°19'9215.3
2018-Sep-14 12:00N 31°06' E 124°06'15914.5 350 / 51013.910.8 28.0 28.0
2018-Sep-14 01:00N 31°00' E 127°12'136 5.2 190 / 201012.910.8 28.724.429.0
2018-Sep-12 23:00N 31°24' E 129°48'134 9.6 140 / 141013.910.8 26.725.727.0
2018-Sep-12 09:00N 33°36' E 130°18'97 4.6 050 / 51013.910.8 26.6
2018-Sep-11 12:00N 33°18' E 128°24'6611.0 060 / 321015.910.8 24.2
2018-Sep-11 06:00N 32°42' E 127°18'8414.0 080 / 281014.9
2018-Sep-11 00:00N 32°06' E 125°48'3316.4 050 / 331015.910.8 25.023.524.0
2018-Sep-10 22:00N 31°54' E 125°12'16014.4 050 / 301016.110.8
2018-Sep-10 10:55N 31°10' E 122°12'715.0
2018-Sep-10 10:27N 31°14' E 122°05'715.1
2018-Sep-10 10:00N 31°15' E 121°57'25 2.8
2018-Sep-10 01:00N 31°24' E 121°30'0 0.0 010 / 131018.910.8 26.8
2018-Sep-10 00:00N 31°24' E 121°30'22 2.2 010 / 171017.910.8 25.0
2018-Sep-09 13:59N 31°16' E 121°54'711.5
2018-Sep-09 13:25N 31°15' E 122°01'  

Dump ship's entire track history